Time;durP1;ratioP1;P1;durP2;ratioP2;P2;SDS_P1;SDS_P2;PMS_P1;PMS_P2;Temp;Humidity;BMP_temperature;BMP_pressure;BME280_temperature;BME280_humidity;BME280_pressure;Samples;Min_cycle;Max_cycle;Signal;HPM_P1;HPM_P2
2023/03/30 00:02:37;;;;;;;3.67;0.65;;;;;;;18.88;39.71;100554.91;16111012;19;128830;-45
2023/03/30 00:07:59;;;;;;;1.05;0.50;;;;;;;18.88;39.86;100556.81;16107131;19;129875;-45
2023/03/30 00:13:21;;;;;;;1.85;0.63;;;;;;;18.85;39.96;100546.25;16108178;19;131224;-45
2023/03/30 00:18:43;;;;;;;4.35;0.80;;;;;;;18.84;39.65;100539.00;16110308;19;134214;-47
2023/03/30 00:24:06;;;;;;;1.58;0.80;;;;;;;18.82;39.66;100524.59;16112359;19;130376;-45
2023/03/30 00:29:28;;;;;;;2.65;0.52;;;;;;;18.81;40.10;100511.84;16110180;19;129252;-47
2023/03/30 00:34:50;;;;;;;1.55;0.63;;;;;;;18.79;39.78;100497.41;16110303;19;130452;-47
2023/03/30 00:40:18;;;;;;;2.90;0.57;;;;;;;18.77;39.97;100490.19;16119712;19;131723;-44
2023/03/30 00:45:39;;;;;;;2.00;0.47;;;;;;;18.76;39.55;100487.69;16126602;19;129882;-45
2023/03/30 00:51:08;;;;;;;2.08;0.57;;;;;;;18.75;39.72;100481.28;16119597;19;130774;-46
2023/03/30 00:56:30;;;;;;;0.95;0.68;;;;;;;18.73;39.52;100483.47;16126984;19;130794;-46
2023/03/30 01:01:52;;;;;;;0.70;0.60;;;;;;;18.72;39.71;100475.41;16121537;19;130891;-46
2023/03/30 01:07:15;;;;;;;3.47;0.70;;;;;;;18.71;39.56;100476.50;16122623;19;130081;-44
2023/03/30 01:12:37;;;;;;;2.25;0.85;;;;;;;18.69;39.95;100474.00;16121666;19;130431;-43
2023/03/30 01:18:26;;;;;;;2.53;0.55;;;;;;;18.70;39.45;100466.53;16122516;19;129793;-46
2023/03/30 01:23:54;;;;;;;1.35;0.45;;;;;;;18.66;39.74;100471.75;16120708;19;130241;-45
2023/03/30 01:29:35;;;;;;;1.05;0.70;;;;;;;18.68;39.40;100461.25;16118096;19;129555;-46
2023/03/30 01:35:06;;;;;;;1.73;0.70;;;;;;;18.65;39.61;100459.00;16124803;19;129324;-46
2023/03/30 01:40:32;;;;;;;1.95;0.70;;;;;;;18.63;39.33;100477.81;16115570;19;131353;-45
2023/03/30 01:46:00;;;;;;;3.50;0.80;;;;;;;18.64;39.70;100473.94;16116519;19;130216;-45
2023/03/30 01:51:27;;;;;;;2.15;0.68;;;;;;;18.61;39.27;100458.69;16119353;19;129531;-48
2023/03/30 01:56:57;;;;;;;1.38;0.70;;;;;;;18.61;39.25;100457.81;16110089;19;130474;-45
2023/03/30 02:02:22;;;;;;;1.65;0.50;;;;;;;18.60;39.21;100458.91;16123139;19;129899;-48
2023/03/30 02:08:00;;;;;;;1.90;0.52;;;;;;;18.61;39.65;100460.59;16119247;19;129510;-46
2023/03/30 02:13:25;;;;;;;2.10;0.70;;;;;;;18.57;39.55;100451.97;16115589;19;130212;-45
2023/03/30 02:18:47;;;;;;;4.15;0.77;;;;;;;18.57;39.32;100470.53;16118107;19;130021;-47
2023/03/30 02:24:17;;;;;;;3.72;0.90;;;;;;;18.56;39.66;100472.44;16117285;19;129521;-44
2023/03/30 02:29:43;;;;;;;1.67;0.68;;;;;;;18.56;39.36;100468.84;16115934;19;130361;-47
2023/03/30 02:35:42;;;;;;;1.83;0.50;;;;;;;18.55;39.39;100461.63;16115578;19;130173;-45
2023/03/30 02:41:28;;;;;;;1.13;0.60;;;;;;;18.53;39.63;100461.88;16115617;19;130463;-48
2023/03/30 02:46:52;;;;;;;2.08;0.60;;;;;;;18.52;39.34;100448.28;16115533;19;129772;-45
2023/03/30 02:52:23;;;;;;;2.20;0.60;;;;;;;18.51;39.32;100444.69;16112729;19;130382;-43
2023/03/30 02:58:04;;;;;;;0.98;0.45;;;;;;;18.51;39.45;100453.00;16115835;19;129593;-44
2023/03/30 03:03:34;;;;;;;0.88;0.50;;;;;;;18.49;39.18;100444.13;16112029;19;130500;-44
2023/03/30 03:08:57;;;;;;;1.88;0.77;;;;;;;18.48;39.50;100444.34;16114095;19;129743;-43
2023/03/30 03:14:19;;;;;;;2.47;0.63;;;;;;;18.46;39.49;100453.75;16113636;19;130943;-45
2023/03/30 03:19:41;;;;;;;1.40;0.47;;;;;;;18.47;39.36;100449.06;16118014;19;129683;-44
2023/03/30 03:25:03;;;;;;;2.05;0.65;;;;;;;18.46;39.16;100439.06;16115067;19;134007;-43
2023/03/30 03:30:25;;;;;;;2.03;0.60;;;;;;;18.44;38.94;100447.66;16114050;19;130434;-43
2023/03/30 03:35:52;;;;;;;0.82;0.50;;;;;;;18.45;39.23;100448.47;16109877;19;130075;-44
2023/03/30 03:41:15;;;;;;;3.22;0.50;;;;;;;18.44;38.94;100442.13;16109989;19;130369;-44
2023/03/30 03:46:37;;;;;;;1.80;0.60;;;;;;;18.44;38.89;100435.72;16112544;19;130182;-44
2023/03/30 03:51:58;;;;;;;0.77;0.43;;;;;;;18.42;39.05;100444.31;16113710;19;131827;-45
2023/03/30 03:57:22;;;;;;;1.52;0.65;;;;;;;18.42;39.29;100430.47;16112790;19;129792;-47
2023/03/30 04:02:44;;;;;;;0.95;0.50;;;;;;;18.41;38.88;100436.22;16108109;19;130749;-45
2023/03/30 04:08:11;;;;;;;1.95;0.70;;;;;;;18.40;39.32;100438.19;16110475;19;129351;-46
2023/03/30 04:13:34;;;;;;;2.72;0.60;;;;;;;18.40;38.84;100429.03;16129276;19;130714;-43
2023/03/30 04:18:56;;;;;;;2.50;0.50;;;;;;;18.38;39.11;100425.66;16139446;19;130187;-47
2023/03/30 04:24:18;;;;;;;2.10;0.90;;;;;;;18.37;38.78;100424.81;16140201;19;129669;-43
2023/03/30 04:29:41;;;;;;;2.10;0.52;;;;;;;18.37;38.75;100429.53;16139120;19;129639;-43
2023/03/30 04:35:04;;;;;;;1.52;0.50;;;;;;;18.36;38.92;100417.59;16139589;19;133970;-45
2023/03/30 04:40:26;;;;;;;3.53;0.70;;;;;;;18.35;38.71;100428.94;16138949;19;131075;-44
2023/03/30 04:45:53;;;;;;;1.23;0.52;;;;;;;18.35;38.75;100426.16;16140041;19;129884;-43
2023/03/30 04:51:15;;;;;;;1.80;0.60;;;;;;;18.34;38.84;100433.63;16134228;19;132223;-43
2023/03/30 04:56:36;;;;;;;1.60;0.60;;;;;;;18.34;38.98;100435.56;16140787;19;130021;-45
2023/03/30 05:01:58;;;;;;;1.30;0.57;;;;;;;18.32;39.01;100433.06;16132469;19;129660;-43
2023/03/30 05:07:20;;;;;;;2.00;0.70;;;;;;;18.35;38.76;100442.78;16135839;19;130933;-44
2023/03/30 05:12:42;;;;;;;3.92;0.68;;;;;;;18.58;38.65;100442.56;16136368;19;129853;-45
2023/03/30 05:18:04;;;;;;;5.25;0.73;;;;;;;18.90;38.46;100460.41;16131767;19;131172;-45
2023/03/30 05:23:26;;;;;;;2.88;0.68;;;;;;;19.15;38.34;100470.09;16126608;19;130910;-47
2023/03/30 05:28:50;;;;;;;1.70;0.55;;;;;;;19.28;38.13;100482.72;16120737;19;129159;-44
2023/03/30 05:34:12;;;;;;;6.03;0.68;;;;;;;19.32;37.69;100479.16;16124022;19;129445;-48
2023/03/30 05:39:33;;;;;;;4.93;0.70;;;;;;;19.33;38.14;100486.38;16119476;19;130114;-46
2023/03/30 05:44:55;;;;;;;4.20;1.00;;;;;;;19.31;38.15;100483.06;16111039;19;131728;-44
2023/03/30 05:50:17;;;;;;;1.98;0.63;;;;;;;19.25;38.07;100491.59;16116496;19;129507;-44
2023/03/30 05:55:42;;;;;;;4.90;0.80;;;;;;;19.21;37.87;100510.66;16119698;19;131285;-46
2023/03/30 06:01:04;;;;;;;3.67;0.83;;;;;;;19.17;37.97;100515.03;16118944;19;131194;-45
2023/03/30 06:06:27;;;;;;;1.88;0.80;;;;;;;19.12;38.14;100510.28;16115851;19;130782;-43
2023/03/30 06:11:48;;;;;;;2.30;0.68;;;;;;;19.06;38.33;100520.47;16120052;19;131807;-45
2023/03/30 06:17:11;;;;;;;3.33;0.70;;;;;;;19.02;38.25;100522.06;16119403;19;131365;-44
2023/03/30 06:22:34;;;;;;;4.85;0.50;;;;;;;18.95;38.22;100529.75;16119998;19;129531;-47
2023/03/30 06:27:56;;;;;;;2.70;0.50;;;;;;;18.90;38.76;100547.13;16119704;19;129207;-49
2023/03/30 06:33:18;;;;;;;4.95;0.75;;;;;;;18.86;38.36;100542.38;16116914;19;131100;-44
2023/03/30 06:38:42;;;;;;;3.30;0.50;;;;;;;18.86;38.38;100540.47;16117890;19;129293;-44
2023/03/30 06:44:05;;;;;;;2.80;0.68;;;;;;;18.87;38.43;100544.06;16117502;19;130028;-47
2023/03/30 06:49:27;;;;;;;2.22;0.63;;;;;;;18.90;38.79;100549.09;16116290;19;131345;-47
2023/03/30 06:54:49;;;;;;;1.85;0.60;;;;;;;18.97;38.83;100548.91;16115722;19;129794;-47
2023/03/30 07:00:12;;;;;;;4.43;0.68;;;;;;;19.02;38.79;100563.66;16116868;19;129976;-44
2023/03/30 07:05:34;;;;;;;4.68;0.30;;;;;;;19.06;38.64;100570.38;16116363;19;130918;-44
2023/03/30 07:10:56;;;;;;;2.58;0.50;;;;;;;19.12;38.14;100553.78;16116576;19;129913;-44
2023/03/30 07:16:18;;;;;;;4.90;0.80;;;;;;;19.15;38.18;100559.66;16115332;19;129924;-43
2023/03/30 07:21:40;;;;;;;2.33;0.45;;;;;;;19.17;38.38;100553.84;16115735;19;130021;-44
2023/03/30 07:27:02;;;;;;;3.63;0.50;;;;;;;19.27;38.27;100559.56;16115857;19;130259;-45
2023/03/30 07:32:24;;;;;;;2.88;0.68;;;;;;;19.42;38.18;100558.88;16118130;19;132140;-45
2023/03/30 07:37:46;;;;;;;2.83;0.70;;;;;;;19.59;37.72;100574.59;16117846;19;130217;-43
2023/03/30 07:43:11;;;;;;;4.07;0.93;;;;;;;19.68;37.92;100582.19;16117240;19;129136;-45
2023/03/30 07:48:33;;;;;;;4.28;0.82;;;;;;;19.74;37.54;100591.41;16113961;19;130426;-44
2023/03/30 07:53:55;;;;;;;1.40;0.60;;;;;;;19.77;37.83;100609.47;16114363;19;131230;-49
2023/03/30 07:59:23;;;;;;;1.98;0.70;;;;;;;19.82;37.48;100615.06;16113951;19;129693;-49
2023/03/30 08:04:45;;;;;;;4.22;1.20;;;;;;;19.82;37.74;100615.06;16112635;19;129538;-48
2023/03/30 08:10:07;;;;;;;5.78;1.42;;;;;;;19.90;37.46;100616.53;16113249;19;129116;-48
2023/03/30 08:15:29;;;;;;;3.63;0.98;;;;;;;19.89;37.76;100620.41;16112642;19;129597;-52
2023/03/30 08:20:52;;;;;;;11.50;1.52;;;;;;;19.91;37.72;100621.84;16110856;19;129293;-50
2023/03/30 08:26:14;;;;;;;8.82;1.02;;;;;;;19.99;37.16;100614.97;16107086;19;130859;-49
2023/03/30 08:31:36;;;;;;;5.40;1.00;;;;;;;19.89;37.50;100615.69;16110515;19;129477;-48
2023/03/30 08:36:59;;;;;;;7.25;1.17;;;;;;;19.83;37.25;100619.50;16109035;19;129113;-49
2023/03/30 08:42:46;;;;;;;8.20;1.50;;;;;;;19.77;37.38;100628.91;16110068;19;129987;-50
2023/03/30 08:48:17;;;;;;;8.95;1.17;;;;;;;19.68;37.53;100636.84;16112078;19;129758;-50
2023/03/30 08:53:40;;;;;;;10.65;1.88;;;;;;;19.61;37.61;100642.59;16111042;19;129362;-47
2023/03/30 08:59:20;;;;;;;13.75;1.98;;;;;;;19.69;37.52;100653.22;16116371;19;129826;-50
2023/03/30 09:05:00;;;;;;;5.40;1.58;;;;;;;19.79;37.47;100637.81;16126190;19;129377;-46
2023/03/30 09:10:25;;;;;;;7.00;1.60;;;;;;;19.78;37.58;100658.34;16124691;19;134675;-48
2023/03/30 09:16:04;;;;;;;12.83;1.67;;;;;;;19.79;38.01;100666.41;16123148;19;130299;-53
2023/03/30 09:21:30;;;;;;;6.30;1.65;;;;;;;19.73;37.63;100673.00;16121258;19;130770;-50
2023/03/30 09:27:01;;;;;;;11.05;1.80;;;;;;;19.68;37.93;100682.13;16122070;19;130785;-50
2023/03/30 09:32:32;;;;;;;7.30;1.90;;;;;;;19.65;37.78;100687.31;16123757;19;134597;-51
2023/03/30 09:37:54;;;;;;;6.97;1.70;;;;;;;19.57;37.87;100687.78;16121082;19;129953;-49
2023/03/30 09:43:22;;;;;;;11.80;2.40;;;;;;;19.51;37.85;100703.53;16122040;19;129733;-49
2023/03/30 09:48:46;;;;;;;10.35;2.03;;;;;;;19.46;38.00;100681.25;16121939;19;129697;-48
2023/03/30 09:54:13;;;;;;;13.20;2.95;;;;;;;19.44;38.03;100697.34;16122844;19;130369;-52
2023/03/30 09:59:36;;;;;;;8.95;2.25;;;;;;;19.42;38.22;100703.13;16121638;19;130340;-52
2023/03/30 10:05:03;;;;;;;7.80;2.50;;;;;;;19.43;38.07;100696.50;16119765;19;129383;-50
2023/03/30 10:10:25;;;;;;;9.93;2.17;;;;;;;19.39;38.42;100700.88;16119460;19;129463;-50
2023/03/30 10:15:52;;;;;;;8.57;2.17;;;;;;;19.37;38.30;100697.53;16122140;19;129663;-47
2023/03/30 10:21:16;;;;;;;9.50;2.28;;;;;;;19.33;38.38;100708.28;16122412;19;131922;-48
2023/03/30 10:26:43;;;;;;;8.30;2.60;;;;;;;19.34;38.46;100706.38;16120953;19;129452;-50
2023/03/30 10:32:13;;;;;;;8.68;2.53;;;;;;;19.36;38.48;100713.31;16122335;19;129250;-48
2023/03/30 10:37:39;;;;;;;11.10;2.47;;;;;;;19.39;38.50;100700.88;16120109;19;129934;-50
2023/03/30 10:43:01;;;;;;;;;;;;;;;19.40;38.22;100685.06;16121243;19;130293;-49
2023/03/30 10:48:42;;;;;;;10.80;2.45;;;;;;;19.42;38.28;100696.75;16120398;19;129548;-49
2023/03/30 10:54:22;;;;;;;9.00;2.00;;;;;;;19.36;38.40;100706.94;16118803;19;131849;-48
2023/03/30 10:59:52;;;;;;;11.38;2.80;;;;;;;19.32;38.69;100706.59;16115195;19;130005;-48
2023/03/30 11:05:29;;;;;;;7.70;2.10;;;;;;;19.31;38.45;100716.03;16115154;19;129462;-47
2023/03/30 11:10:56;;;;;;;8.63;2.35;;;;;;;19.31;38.47;100712.41;16117985;19;129461;-50
2023/03/30 11:16:31;;;;;;;10.57;2.20;;;;;;;19.32;38.60;100708.56;16118837;19;129972;-49
2023/03/30 11:22:34;;;;;;;10.20;2.50;;;;;;;19.32;38.70;100717.69;16115881;19;129431;-51
2023/03/30 11:28:08;;;;;;;9.57;2.20;;;;;;;19.33;38.87;100719.38;16115827;19;131102;-48
2023/03/30 11:33:44;;;;;;;10.07;2.40;;;;;;;19.34;38.46;100700.81;16115209;19;129038;-49
2023/03/30 11:39:14;;;;;;;11.20;2.42;;;;;;;19.33;39.03;100708.28;16116662;19;130264;-47
2023/03/30 11:44:51;;;;;;;7.25;2.30;;;;;;;19.30;38.98;100719.06;16115710;19;129646;-51
2023/03/30 11:50:19;;;;;;;12.68;2.58;;;;;;;19.30;38.82;100714.38;16115865;19;130861;-50
2023/03/30 11:56:00;;;;;;;7.15;2.20;;;;;;;19.29;38.57;100715.47;16114975;19;131668;-47
2023/03/30 12:01:54;;;;;;;8.23;1.90;;;;;;;19.30;38.99;100724.59;16114131;19;134613;-46
2023/03/30 12:07:40;;;;;;;5.95;1.92;;;;;;;19.30;38.51;100714.38;16114051;19;129973;-46
2023/03/30 12:13:02;;;;;;;8.27;2.20;;;;;;;19.26;39.06;100718.72;16111739;19;130808;-48
2023/03/30 12:18:39;;;;;;;8.35;1.90;;;;;;;19.28;39.09;100722.09;16115344;19;129547;-47
2023/03/30 12:24:29;;;;;;;9.40;2.65;;;;;;;19.25;38.76;100730.09;16116231;19;129641;-49
2023/03/30 12:29:52;;;;;;;10.90;2.33;;;;;;;19.24;38.87;100722.88;16110726;19;130377;-56
2023/03/30 12:35:46;;;;;;;9.77;2.33;;;;;;;19.23;38.89;100713.69;16124924;19;130243;-50
2023/03/30 12:41:13;;;;;;;10.27;2.58;;;;;;;19.24;38.68;100711.78;16125902;19;130148;-48
2023/03/30 12:46:48;;;;;;;8.25;1.80;;;;;;;19.24;38.72;100707.06;16128619;19;130256;-50
2023/03/30 12:52:22;;;;;;;12.20;2.15;;;;;;;19.24;38.95;100697.91;16127643;19;129391;-49
2023/03/30 12:58:02;;;;;;;8.90;2.22;;;;;;;19.25;38.85;100694.03;16123646;19;129679;-49
2023/03/30 13:03:33;;;;;;;7.85;2.00;;;;;;;19.24;39.27;100687.63;16125434;19;130774;-48
2023/03/30 13:09:22;;;;;;;11.63;2.35;;;;;;;19.24;38.78;100671.00;16128954;19;129489;-48
2023/03/30 13:14:45;;;;;;;7.07;1.88;;;;;;;19.21;39.12;100685.38;16124091;19;129617;-49
2023/03/30 13:20:20;;;;;;;10.70;1.95;;;;;;;19.20;38.86;100684.50;16127918;19;130366;-46
2023/03/30 13:26:01;;;;;;;11.63;2.25;;;;;;;19.17;38.83;100709.16;16127460;19;130634;-48
2023/03/30 13:31:51;;;;;;;10.32;2.35;;;;;;;19.13;38.74;100730.16;16128505;19;129641;-49
2023/03/30 13:37:20;;;;;;;7.47;1.92;;;;;;;19.11;38.86;100738.75;16126191;19;129687;-46
2023/03/30 13:43:12;;;;;;;6.75;1.90;;;;;;;19.13;38.78;100721.84;16124429;19;129916;-49
2023/03/30 13:49:13;;;;;;;9.48;1.88;;;;;;;19.12;38.86;100701.59;16122018;19;130961;-49
2023/03/30 13:54:39;;;;;;;7.25;1.77;;;;;;;19.11;38.83;100699.91;16123526;19;129750;-51
2023/03/30 14:00:05;;;;;;;;;;;;;;;19.07;38.87;100691.28;16122238;19;129644;-48
2023/03/30 14:05:27;;;;;;;7.67;1.83;;;;;;;19.08;38.91;100692.94;16122999;19;130683;-51
2023/03/30 14:10:50;;;;;;;7.68;2.13;;;;;;;19.07;39.11;100695.97;16121452;19;129662;-52
2023/03/30 14:16:24;;;;;;;6.53;1.88;;;;;;;19.09;39.09;100685.47;16118927;19;130110;-47
2023/03/30 14:21:47;;;;;;;9.80;2.30;;;;;;;19.07;39.19;100688.50;16120078;19;129495;-47
2023/03/30 14:27:14;;;;;;;8.40;1.95;;;;;;;19.10;39.28;100683.53;16119887;19;129446;-48
2023/03/30 14:32:35;;;;;;;8.13;1.55;;;;;;;19.06;39.30;100670.19;16120998;19;130272;-50
2023/03/30 14:37:57;;;;;;;8.40;2.35;;;;;;;19.05;39.19;100679.59;16120351;19;132837;-51
2023/03/30 14:43:39;;;;;;;7.35;1.83;;;;;;;19.05;39.23;100690.69;16121502;19;129715;-48
2023/03/30 14:49:02;;;;;;;9.50;2.00;;;;;;;19.05;39.16;100689.84;16120103;19;130661;-48
2023/03/30 14:54:24;;;;;;;10.20;2.10;;;;;;;19.06;39.27;100697.06;16118302;19;131344;-51
2023/03/30 14:59:58;;;;;;;12.00;2.10;;;;;;;19.07;39.26;100682.09;16118500;19;129776;-47
2023/03/30 15:05:23;;;;;;;5.30;1.42;;;;;;;19.06;39.42;100674.88;16119274;19;130017;-48
2023/03/30 15:10:55;;;;;;;8.73;1.75;;;;;;;19.04;39.46;100671.50;16117133;19;131885;-49
2023/03/30 15:16:22;;;;;;;7.55;2.10;;;;;;;19.02;39.57;100695.88;16117968;19;129599;-47
2023/03/30 15:21:44;;;;;;;9.55;2.00;;;;;;;19.02;39.39;100702.28;16115761;19;131273;-51
2023/03/30 15:27:10;;;;;;;8.65;2.03;;;;;;;19.04;39.46;100693.69;16118074;19;131926;-50
2023/03/30 15:32:37;;;;;;;7.10;1.90;;;;;;;19.04;39.07;100689.00;16114782;19;129640;-48
2023/03/30 15:38:11;;;;;;;6.38;1.73;;;;;;;19.06;39.34;100681.28;16115826;19;129641;-51
2023/03/30 15:43:35;;;;;;;5.28;1.67;;;;;;;19.03;39.46;100687.31;16115720;19;131125;-47
2023/03/30 15:48:58;;;;;;;5.95;1.85;;;;;;;19.01;39.26;100683.97;16113757;19;129863;-47
2023/03/30 15:54:22;;;;;;;7.47;1.85;;;;;;;18.98;39.58;100698.31;16113291;19;130274;-47
2023/03/30 15:59:50;;;;;;;7.77;2.10;;;;;;;18.98;39.38;100694.72;16112793;19;129542;-50
2023/03/30 16:05:18;;;;;;;9.75;1.65;;;;;;;18.96;39.62;100692.19;16111399;19;129562;-49
2023/03/30 16:10:40;;;;;;;10.32;2.17;;;;;;;18.95;39.36;100684.16;16110735;19;129413;-50
2023/03/30 16:16:02;;;;;;;11.45;1.58;;;;;;;18.92;39.92;100678.00;16114035;19;129649;-51
2023/03/30 16:21:24;;;;;;;7.55;1.83;;;;;;;18.94;39.77;100676.91;16109578;19;131262;-49
2023/03/30 16:26:46;;;;;;;10.73;2.40;;;;;;;18.94;39.51;100663.91;16112014;19;128938;-52
2023/03/30 16:32:08;;;;;;;10.80;1.98;;;;;;;18.97;40.01;100665.31;16111163;19;130030;-47
2023/03/30 16:37:30;;;;;;;12.38;2.20;;;;;;;18.99;40.52;100657.59;16112919;19;130288;-51
2023/03/30 16:42:51;;;;;;;11.80;2.47;;;;;;;19.04;40.96;100665.97;16109900;19;130931;-47
2023/03/30 16:48:14;;;;;;;10.20;2.10;;;;;;;19.11;40.76;100660.25;16109473;19;130251;-50
2023/03/30 16:53:36;;;;;;;11.00;2.15;;;;;;;19.27;40.66;100659.41;16106735;19;131546;-50
2023/03/30 16:59:00;;;;;;;9.30;2.00;;;;;;;19.53;40.65;100652.22;16107616;19;135314;-49
2023/03/30 17:04:22;;;;;;;9.45;1.90;;;;;;;19.87;39.97;100650.38;16108954;19;129325;-51
2023/03/30 17:09:44;;;;;;;10.60;2.58;;;;;;;20.08;39.85;100654.22;16108084;19;129953;-47
2023/03/30 17:15:07;;;;;;;11.75;2.10;;;;;;;20.18;39.48;100657.13;16110568;19;129488;-53
2023/03/30 17:20:35;;;;;;;10.02;2.10;;;;;;;20.23;39.82;100662.69;16113129;19;129392;-48
2023/03/30 17:25:59;;;;;;;13.68;1.90;;;;;;;20.21;39.82;100661.28;16126095;19;129625;-52
2023/03/30 17:31:22;;;;;;;14.07;2.22;;;;;;;20.16;39.70;100653.75;16124919;19;129447;-46
2023/03/30 17:36:44;;;;;;;11.32;2.15;;;;;;;20.10;39.89;100657.56;16121775;19;130100;-48
2023/03/30 17:42:06;;;;;;;11.45;2.03;;;;;;;20.01;39.76;100651.66;16041755;19;160523;-51
2023/03/30 17:47:28;;;;;;;8.57;2.22;;;;;;;19.97;39.80;100654.09;16123554;19;130119;-53
2023/03/30 17:52:52;;;;;;;8.45;2.20;;;;;;;19.93;40.01;100666.84;16123389;19;131828;-51
2023/03/30 17:58:23;;;;;;;15.75;2.42;;;;;;;19.89;40.16;100646.25;16122529;19;129468;-48
2023/03/30 18:03:45;;;;;;;10.07;1.98;;;;;;;19.82;40.32;100649.22;16121698;19;129832;-51
2023/03/30 18:09:15;;;;;;;11.60;2.30;;;;;;;19.80;40.84;100653.38;16124969;19;129729;-48
2023/03/30 18:14:36;;;;;;;10.63;2.40;;;;;;;19.80;40.70;100650.59;16123164;19;129351;-50
2023/03/30 18:19:59;;;;;;;14.25;2.30;;;;;;;19.82;41.20;100659.47;16123459;19;129704;-48
2023/03/30 18:25:21;;;;;;;13.30;2.22;;;;;;;19.82;41.26;100659.47;16122284;19;131096;-52
2023/03/30 18:30:56;;;;;;;10.65;2.08;;;;;;;19.81;40.91;100658.66;16119297;19;129739;-52
2023/03/30 18:36:21;;;;;;;8.73;1.85;;;;;;;19.83;40.90;100656.47;16119530;19;130488;-54
2023/03/30 18:41:43;;;;;;;11.07;2.40;;;;;;;19.87;40.97;100642.88;16119942;19;129822;-49
2023/03/30 18:47:05;;;;;;;11.38;1.92;;;;;;;19.93;40.70;100641.84;16123108;19;129619;-49
2023/03/30 18:52:27;;;;;;;10.30;1.90;;;;;;;19.97;40.61;100644.94;16121500;19;129315;-51
2023/03/30 18:57:50;;;;;;;10.30;2.05;;;;;;;20.07;40.36;100645.06;16118714;19;130596;-49
2023/03/30 19:03:13;;;;;;;9.32;2.00;;;;;;;20.31;40.28;100641.94;16119871;19;130445;-47
2023/03/30 19:08:35;;;;;;;7.28;1.73;;;;;;;20.56;39.94;100643.25;16115965;19;131014;-51
2023/03/30 19:13:59;;;;;;;8.07;1.98;;;;;;;20.81;39.63;100645.38;16117660;19;130313;-47
2023/03/30 19:19:21;;;;;;;12.90;1.80;;;;;;;20.99;39.38;100649.66;16113538;19;129472;-48
2023/03/30 19:24:43;;;;;;;25.50;2.83;;;;;;;21.19;39.11;100643.38;16114026;19;130900;-48
2023/03/30 19:30:06;;;;;;;25.27;2.17;;;;;;;21.39;38.90;100644.59;16111014;19;131342;-46
2023/03/30 19:35:29;;;;;;;19.88;2.55;;;;;;;21.58;39.01;100652.47;16114609;19;130935;-46
2023/03/30 19:40:51;;;;;;;13.05;1.83;;;;;;;21.70;38.79;100649.47;16112765;19;131802;-44
2023/03/30 19:46:13;;;;;;;12.27;2.40;;;;;;;21.76;38.71;100645.56;16113438;19;130714;-47
2023/03/30 19:51:35;;;;;;;11.20;1.75;;;;;;;21.74;39.13;100640.28;16113568;19;131321;-48
2023/03/30 19:56:57;;;;;;;13.05;2.92;;;;;;;21.72;38.94;100644.47;16113235;19;130555;-44
2023/03/30 20:02:19;;;;;;;13.52;2.42;;;;;;;21.68;39.05;100635.78;16111292;19;130378;-45
2023/03/30 20:07:43;;;;;;;18.00;2.33;;;;;;;21.68;39.13;100627.44;16113926;19;129869;-48
2023/03/30 20:13:05;;;;;;;11.40;1.90;;;;;;;21.67;39.19;100634.97;16111184;19;131235;-46
2023/03/30 20:18:29;;;;;;;17.38;2.88;;;;;;;21.62;39.21;100620.19;16112207;19;129368;-43
2023/03/30 20:23:51;;;;;;;29.87;3.60;;;;;;;21.54;39.07;100627.13;16109794;19;129591;-43
2023/03/30 20:29:13;;;;;;;23.73;2.67;;;;;;;21.48;39.17;100623.47;16110714;19;132079;-45
2023/03/30 20:34:35;;;;;;;35.78;3.85;;;;;;;21.40;39.37;100621.22;16110086;19;129606;-50
2023/03/30 20:40:08;;;;;;;24.73;3.33;;;;;;;21.31;39.46;100611.72;16108673;19;129605;-48
2023/03/30 20:45:30;;;;;;;24.90;3.00;;;;;;;21.24;39.56;100605.56;16107493;19;131282;-44
2023/03/30 20:50:54;;;;;;;26.88;3.20;;;;;;;21.14;40.09;100598.88;16105660;19;131957;-44
2023/03/30 20:56:16;;;;;;;20.27;3.00;;;;;;;21.05;39.86;100589.34;16121828;19;131126;-49
2023/03/30 21:01:39;;;;;;;36.30;2.90;;;;;;;20.99;40.31;100580.13;16125009;19;129982;-44
2023/03/30 21:07:01;;;;;;;65.45;4.47;;;;;;;20.94;40.49;100582.91;16123722;19;130241;-45
2023/03/30 21:12:23;;;;;;;41.47;3.97;;;;;;;20.87;40.81;100574.81;16125470;19;131511;-44
2023/03/30 21:17:45;;;;;;;34.88;3.53;;;;;;;20.82;40.58;100577.56;16123798;19;129854;-44
2023/03/30 21:23:07;;;;;;;26.60;3.47;;;;;;;20.78;40.61;100570.88;16126377;19;129291;-45
2023/03/30 21:28:29;;;;;;;34.40;4.28;;;;;;;20.72;41.11;100555.22;16124365;19;129744;-43
2023/03/30 21:33:51;;;;;;;26.52;2.60;;;;;;;20.69;41.07;100544.66;16121795;19;132113;-49
2023/03/30 21:39:13;;;;;;;33.50;3.28;;;;;;;20.60;40.64;100536.00;16120629;19;131467;-49
2023/03/30 21:44:35;;;;;;;22.48;2.60;;;;;;;20.57;40.71;100536.53;16122203;19;130989;-48
2023/03/30 21:49:57;;;;;;;28.55;3.30;;;;;;;20.51;40.86;100541.22;16125314;19;130399;-47
2023/03/30 21:55:19;;;;;;;31.65;3.35;;;;;;;20.42;40.85;100527.00;16117789;19;130403;-46
2023/03/30 22:00:45;;;;;;;22.35;3.40;;;;;;;20.36;40.89;100518.91;16119781;19;129676;-46
2023/03/30 22:06:09;;;;;;;21.38;2.67;;;;;;;20.31;41.13;100518.88;16117718;19;130130;-45
2023/03/30 22:11:31;;;;;;;22.27;2.50;;;;;;;20.21;41.12;100503.81;16119346;19;131088;-49
2023/03/30 22:16:53;;;;;;;12.07;2.08;;;;;;;20.15;41.19;100507.66;16120966;19;130025;-46
2023/03/30 22:22:15;;;;;;;14.50;2.15;;;;;;;20.10;40.74;100485.41;16117041;19;130439;-48
2023/03/30 22:27:37;;;;;;;22.38;2.65;;;;;;;20.04;40.64;100462.31;16117077;19;129318;-49
2023/03/30 22:32:59;;;;;;;15.07;2.03;;;;;;;19.98;40.82;100458.63;16120260;19;130359;-47
2023/03/30 22:38:21;;;;;;;10.60;2.00;;;;;;;19.93;40.83;100444.72;16115870;19;130025;-47
2023/03/30 22:43:44;;;;;;;12.70;2.10;;;;;;;19.89;40.66;100426.94;16116228;19;130941;-46
2023/03/30 22:49:06;;;;;;;14.77;2.00;;;;;;;19.84;41.10;100399.13;16116790;19;131976;-48
2023/03/30 22:54:28;;;;;;;17.48;2.00;;;;;;;19.81;40.91;100408.00;16117281;19;129692;-45
2023/03/30 22:59:50;;;;;;;12.80;1.92;;;;;;;19.75;40.64;100401.59;16117290;19;130914;-45
2023/03/30 23:05:13;;;;;;;19.27;2.72;;;;;;;19.72;40.84;100391.00;16116410;19;129662;-45
2023/03/30 23:10:36;;;;;;;9.45;1.80;;;;;;;19.67;40.69;100375.16;16114356;19;130023;-48
2023/03/30 23:15:58;;;;;;;13.40;1.73;;;;;;;19.63;40.85;100351.81;16113966;19;133922;-46
2023/03/30 23:21:21;;;;;;;8.27;2.17;;;;;;;19.60;40.72;100341.25;16117281;19;129640;-47
2023/03/30 23:26:42;;;;;;;6.97;1.80;;;;;;;19.57;40.79;100336.22;16115555;19;134477;-49
2023/03/30 23:32:05;;;;;;;9.73;1.98;;;;;;;19.54;41.16;100334.00;16114717;19;130609;-46
2023/03/30 23:37:29;;;;;;;10.10;1.70;;;;;;;19.51;40.57;100317.88;16114687;19;130393;-47
2023/03/30 23:42:50;;;;;;;6.63;1.75;;;;;;;19.49;40.80;100312.63;16108382;19;130589;-47
2023/03/30 23:48:12;;;;;;;5.18;1.63;;;;;;;19.45;40.67;100305.06;16113861;19;129710;-46
2023/03/30 23:53:38;;;;;;;7.18;1.30;;;;;;;19.43;40.63;100291.47;16115836;19;129597;-46
2023/03/30 23:59:01;;;;;;;6.80;1.75;;;;;;;19.42;40.89;100283.44;16115301;19;129274;-45
